sensor_id;sensor_type;location;lat;lon;timestamp;P1;durP1;ratioP1;P2;durP2;ratioP2
19877;SDS011;10101;52.204;9.910;2023-09-30T00:00:02;10.27;;;3.10;;
19877;SDS011;10101;52.204;9.910;2023-09-30T00:02:30;9.27;;;2.63;;
19877;SDS011;10101;52.204;9.910;2023-09-30T00:04:57;12.03;;;3.23;;
19877;SDS011;10101;52.204;9.910;2023-09-30T00:07:23;9.70;;;3.13;;
19877;SDS011;10101;52.204;9.910;2023-09-30T00:09:52;12.60;;;3.37;;
19877;SDS011;10101;52.204;9.910;2023-09-30T00:12:19;15.07;;;3.00;;
19877;SDS011;10101;52.204;9.910;2023-09-30T00:14:46;9.27;;;3.40;;
19877;SDS011;10101;52.204;9.910;2023-09-30T00:17:13;10.00;;;3.20;;
19877;SDS011;10101;52.204;9.910;2023-09-30T00:19:40;9.23;;;3.17;;
19877;SDS011;10101;52.204;9.910;2023-09-30T00:22:07;8.60;;;2.63;;
19877;SDS011;10101;52.204;9.910;2023-09-30T00:24:33;10.17;;;3.03;;
19877;SDS011;10101;52.204;9.910;2023-09-30T00:27:01;9.03;;;2.80;;
19877;SDS011;10101;52.204;9.910;2023-09-30T00:29:28;9.40;;;3.20;;
19877;SDS011;10101;52.204;9.910;2023-09-30T00:31:55;7.40;;;3.00;;
19877;SDS011;10101;52.204;9.910;2023-09-30T00:34:22;8.27;;;2.70;;
19877;SDS011;10101;52.204;9.910;2023-09-30T00:36:48;12.87;;;3.37;;
19877;SDS011;10101;52.204;9.910;2023-09-30T00:39:15;12.27;;;3.50;;
19877;SDS011;10101;52.204;9.910;2023-09-30T00:41:42;10.87;;;3.70;;
19877;SDS011;10101;52.204;9.910;2023-09-30T00:44:10;14.77;;;3.40;;
19877;SDS011;10101;52.204;9.910;2023-09-30T00:46:37;16.27;;;3.33;;
19877;SDS011;10101;52.204;9.910;2023-09-30T00:49:08;12.47;;;3.80;;
19877;SDS011;10101;52.204;9.910;2023-09-30T00:51:35;13.13;;;3.67;;
19877;SDS011;10101;52.204;9.910;2023-09-30T00:54:03;10.67;;;2.83;;
19877;SDS011;10101;52.204;9.910;2023-09-30T00:56:31;10.10;;;2.70;;
19877;SDS011;10101;52.204;9.910;2023-09-30T00:58:59;9.03;;;2.97;;
19877;SDS011;10101;52.204;9.910;2023-09-30T01:01:28;8.50;;;3.03;;
19877;SDS011;10101;52.204;9.910;2023-09-30T01:03:54;11.20;;;2.90;;
19877;SDS011;10101;52.204;9.910;2023-09-30T01:06:21;10.33;;;3.17;;
19877;SDS011;10101;52.204;9.910;2023-09-30T01:08:48;13.53;;;3.07;;
19877;SDS011;10101;52.204;9.910;2023-09-30T01:11:15;11.90;;;3.63;;
19877;SDS011;10101;52.204;9.910;2023-09-30T01:13:43;14.77;;;3.50;;
19877;SDS011;10101;52.204;9.910;2023-09-30T01:16:12;10.20;;;3.37;;
19877;SDS011;10101;52.204;9.910;2023-09-30T01:18:40;10.87;;;3.03;;
19877;SDS011;10101;52.204;9.910;2023-09-30T01:21:08;10.67;;;3.50;;
19877;SDS011;10101;52.204;9.910;2023-09-30T01:23:36;12.13;;;2.70;;
19877;SDS011;10101;52.204;9.910;2023-09-30T01:26:04;12.90;;;3.53;;
19877;SDS011;10101;52.204;9.910;2023-09-30T01:28:31;12.87;;;3.10;;
19877;SDS011;10101;52.204;9.910;2023-09-30T01:30:58;13.70;;;3.40;;
19877;SDS011;10101;52.204;9.910;2023-09-30T01:33:25;12.17;;;2.97;;
19877;SDS011;10101;52.204;9.910;2023-09-30T01:35:53;9.80;;;2.50;;
19877;SDS011;10101;52.204;9.910;2023-09-30T01:38:20;11.67;;;3.37;;
19877;SDS011;10101;52.204;9.910;2023-09-30T01:40:48;10.97;;;3.90;;
19877;SDS011;10101;52.204;9.910;2023-09-30T01:43:15;10.17;;;3.10;;
19877;SDS011;10101;52.204;9.910;2023-09-30T01:45:42;10.90;;;3.23;;
19877;SDS011;10101;52.204;9.910;2023-09-30T01:48:10;11.03;;;2.97;;
19877;SDS011;10101;52.204;9.910;2023-09-30T01:50:37;10.63;;;4.13;;
19877;SDS011;10101;52.204;9.910;2023-09-30T01:53:04;8.77;;;2.77;;
19877;SDS011;10101;52.204;9.910;2023-09-30T01:55:31;7.93;;;2.90;;
19877;SDS011;10101;52.204;9.910;2023-09-30T01:57:59;9.67;;;3.57;;
19877;SDS011;10101;52.204;9.910;2023-09-30T02:00:26;9.03;;;3.37;;
19877;SDS011;10101;52.204;9.910;2023-09-30T02:02:53;9.37;;;3.63;;
19877;SDS011;10101;52.204;9.910;2023-09-30T02:05:20;10.30;;;3.63;;
19877;SDS011;10101;52.204;9.910;2023-09-30T02:07:47;8.47;;;3.07;;
19877;SDS011;10101;52.204;9.910;2023-09-30T02:10:14;13.10;;;4.53;;
19877;SDS011;10101;52.204;9.910;2023-09-30T02:12:43;6.83;;;3.53;;
19877;SDS011;10101;52.204;9.910;2023-09-30T02:15:12;12.67;;;3.60;;
19877;SDS011;10101;52.204;9.910;2023-09-30T02:17:39;8.90;;;3.30;;
19877;SDS011;10101;52.204;9.910;2023-09-30T02:20:10;11.37;;;3.33;;
19877;SDS011;10101;52.204;9.910;2023-09-30T02:22:40;11.47;;;3.67;;
19877;SDS011;10101;52.204;9.910;2023-09-30T02:25:08;11.97;;;3.40;;
19877;SDS011;10101;52.204;9.910;2023-09-30T02:27:37;16.13;;;3.37;;
19877;SDS011;10101;52.204;9.910;2023-09-30T02:30:06;12.80;;;3.57;;
19877;SDS011;10101;52.204;9.910;2023-09-30T02:32:35;9.37;;;3.20;;
19877;SDS011;10101;52.204;9.910;2023-09-30T02:35:02;10.27;;;3.37;;
19877;SDS011;10101;52.204;9.910;2023-09-30T02:37:31;9.80;;;3.60;;
19877;SDS011;10101;52.204;9.910;2023-09-30T02:40:01;14.80;;;4.10;;
19877;SDS011;10101;52.204;9.910;2023-09-30T02:42:29;8.77;;;3.27;;
19877;SDS011;10101;52.204;9.910;2023-09-30T02:44:56;15.47;;;3.83;;
19877;SDS011;10101;52.204;9.910;2023-09-30T02:47:25;12.20;;;3.70;;
19877;SDS011;10101;52.204;9.910;2023-09-30T02:49:53;11.80;;;3.70;;
19877;SDS011;10101;52.204;9.910;2023-09-30T02:52:20;11.40;;;3.40;;
19877;SDS011;10101;52.204;9.910;2023-09-30T02:54:47;11.83;;;3.83;;
19877;SDS011;10101;52.204;9.910;2023-09-30T02:57:14;16.93;;;3.60;;
19877;SDS011;10101;52.204;9.910;2023-09-30T02:59:42;12.13;;;4.20;;
19877;SDS011;10101;52.204;9.910;2023-09-30T03:02:09;15.00;;;3.83;;
19877;SDS011;10101;52.204;9.910;2023-09-30T03:04:36;14.53;;;4.03;;
19877;SDS011;10101;52.204;9.910;2023-09-30T03:07:04;13.87;;;3.70;;
19877;SDS011;10101;52.204;9.910;2023-09-30T03:09:32;8.43;;;3.60;;
19877;SDS011;10101;52.204;9.910;2023-09-30T03:11:59;13.40;;;3.40;;
19877;SDS011;10101;52.204;9.910;2023-09-30T03:14:25;17.40;;;4.20;;
19877;SDS011;10101;52.204;9.910;2023-09-30T03:16:55;12.53;;;4.33;;
19877;SDS011;10101;52.204;9.910;2023-09-30T03:19:22;13.17;;;3.90;;
19877;SDS011;10101;52.204;9.910;2023-09-30T03:21:49;12.50;;;3.70;;
19877;SDS011;10101;52.204;9.910;2023-09-30T03:24:17;15.27;;;4.40;;
19877;SDS011;10101;52.204;9.910;2023-09-30T03:26:44;15.90;;;4.30;;
19877;SDS011;10101;52.204;9.910;2023-09-30T03:29:10;18.20;;;4.20;;
19877;SDS011;10101;52.204;9.910;2023-09-30T03:31:37;15.07;;;4.03;;
19877;SDS011;10101;52.204;9.910;2023-09-30T03:34:04;9.73;;;3.70;;
19877;SDS011;10101;52.204;9.910;2023-09-30T03:36:31;10.43;;;3.80;;
19877;SDS011;10101;52.204;9.910;2023-09-30T03:38:58;16.70;;;4.50;;
19877;SDS011;10101;52.204;9.910;2023-09-30T03:41:32;13.67;;;3.73;;
19877;SDS011;10101;52.204;9.910;2023-09-30T03:44:00;16.00;;;3.97;;
19877;SDS011;10101;52.204;9.910;2023-09-30T03:46:27;14.30;;;4.20;;
19877;SDS011;10101;52.204;9.910;2023-09-30T03:48:53;12.03;;;3.43;;
19877;SDS011;10101;52.204;9.910;2023-09-30T03:51:20;14.60;;;4.33;;
19877;SDS011;10101;52.204;9.910;2023-09-30T03:53:50;11.03;;;3.43;;
19877;SDS011;10101;52.204;9.910;2023-09-30T03:56:17;11.10;;;3.67;;
19877;SDS011;10101;52.204;9.910;2023-09-30T03:58:45;12.60;;;3.60;;
19877;SDS011;10101;52.204;9.910;2023-09-30T04:01:13;13.33;;;3.47;;
19877;SDS011;10101;52.204;9.910;2023-09-30T04:03:41;14.30;;;3.63;;
19877;SDS011;10101;52.204;9.910;2023-09-30T04:06:09;12.17;;;3.20;;
19877;SDS011;10101;52.204;9.910;2023-09-30T04:08:35;13.27;;;3.83;;
19877;SDS011;10101;52.204;9.910;2023-09-30T04:11:03;13.73;;;3.77;;
19877;SDS011;10101;52.204;9.910;2023-09-30T04:13:30;12.03;;;3.60;;
19877;SDS011;10101;52.204;9.910;2023-09-30T04:15:59;15.97;;;4.27;;
19877;SDS011;10101;52.204;9.910;2023-09-30T04:18:26;14.23;;;3.80;;
19877;SDS011;10101;52.204;9.910;2023-09-30T04:20:52;8.40;;;3.20;;
19877;SDS011;10101;52.204;9.910;2023-09-30T04:23:19;13.13;;;3.77;;
19877;SDS011;10101;52.204;9.910;2023-09-30T04:25:47;10.90;;;3.27;;
19877;SDS011;10101;52.204;9.910;2023-09-30T04:28:14;13.43;;;4.40;;
19877;SDS011;10101;52.204;9.910;2023-09-30T04:30:45;13.00;;;4.03;;
19877;SDS011;10101;52.204;9.910;2023-09-30T04:33:14;14.00;;;4.13;;
19877;SDS011;10101;52.204;9.910;2023-09-30T04:35:42;11.30;;;3.63;;
19877;SDS011;10101;52.204;9.910;2023-09-30T04:38:09;12.57;;;4.63;;
19877;SDS011;10101;52.204;9.910;2023-09-30T04:40:36;12.63;;;3.73;;
19877;SDS011;10101;52.204;9.910;2023-09-30T04:43:03;9.27;;;3.20;;
19877;SDS011;10101;52.204;9.910;2023-09-30T04:45:30;12.83;;;3.70;;
19877;SDS011;10101;52.204;9.910;2023-09-30T04:47:58;12.63;;;3.43;;
19877;SDS011;10101;52.204;9.910;2023-09-30T04:50:27;15.53;;;4.30;;
19877;SDS011;10101;52.204;9.910;2023-09-30T04:52:55;14.87;;;3.47;;
19877;SDS011;10101;52.204;9.910;2023-09-30T04:55:22;10.73;;;3.70;;
19877;SDS011;10101;52.204;9.910;2023-09-30T04:57:49;10.60;;;3.07;;
19877;SDS011;10101;52.204;9.910;2023-09-30T05:00:17;11.87;;;3.57;;
19877;SDS011;10101;52.204;9.910;2023-09-30T05:02:49;13.50;;;3.13;;
19877;SDS011;10101;52.204;9.910;2023-09-30T05:05:17;12.93;;;3.20;;
19877;SDS011;10101;52.204;9.910;2023-09-30T05:07:45;10.13;;;3.30;;
19877;SDS011;10101;52.204;9.910;2023-09-30T05:10:13;12.73;;;3.13;;
19877;SDS011;10101;52.204;9.910;2023-09-30T05:12:41;12.73;;;3.40;;
19877;SDS011;10101;52.204;9.910;2023-09-30T05:15:10;11.20;;;3.13;;
19877;SDS011;10101;52.204;9.910;2023-09-30T05:17:37;14.10;;;3.97;;
19877;SDS011;10101;52.204;9.910;2023-09-30T05:20:05;11.30;;;3.03;;
19877;SDS011;10101;52.204;9.910;2023-09-30T05:22:32;11.10;;;3.33;;
19877;SDS011;10101;52.204;9.910;2023-09-30T05:25:00;14.33;;;3.23;;
19877;SDS011;10101;52.204;9.910;2023-09-30T05:27:27;12.13;;;3.13;;
19877;SDS011;10101;52.204;9.910;2023-09-30T05:29:54;10.10;;;3.50;;
19877;SDS011;10101;52.204;9.910;2023-09-30T05:32:21;14.33;;;3.37;;
19877;SDS011;10101;52.204;9.910;2023-09-30T05:34:48;12.47;;;3.57;;
19877;SDS011;10101;52.204;9.910;2023-09-30T05:37:15;15.90;;;2.87;;
19877;SDS011;10101;52.204;9.910;2023-09-30T05:39:42;10.10;;;3.20;;
19877;SDS011;10101;52.204;9.910;2023-09-30T05:42:11;9.50;;;2.60;;
19877;SDS011;10101;52.204;9.910;2023-09-30T05:44:37;10.20;;;3.00;;
19877;SDS011;10101;52.204;9.910;2023-09-30T05:47:04;15.63;;;3.23;;
19877;SDS011;10101;52.204;9.910;2023-09-30T05:49:31;11.90;;;3.30;;
19877;SDS011;10101;52.204;9.910;2023-09-30T05:51:58;12.43;;;3.03;;
19877;SDS011;10101;52.204;9.910;2023-09-30T05:54:24;9.83;;;2.53;;
19877;SDS011;10101;52.204;9.910;2023-09-30T05:56:51;10.57;;;3.00;;
19877;SDS011;10101;52.204;9.910;2023-09-30T05:59:19;11.10;;;3.20;;
19877;SDS011;10101;52.204;9.910;2023-09-30T06:01:46;14.40;;;3.00;;
19877;SDS011;10101;52.204;9.910;2023-09-30T06:04:12;9.27;;;3.03;;
19877;SDS011;10101;52.204;9.910;2023-09-30T06:06:40;12.47;;;3.10;;
19877;SDS011;10101;52.204;9.910;2023-09-30T06:09:08;9.23;;;2.70;;
19877;SDS011;10101;52.204;9.910;2023-09-30T06:11:34;12.60;;;3.40;;
19877;SDS011;10101;52.204;9.910;2023-09-30T06:14:02;13.80;;;3.13;;
19877;SDS011;10101;52.204;9.910;2023-09-30T06:16:32;14.77;;;3.53;;
19877;SDS011;10101;52.204;9.910;2023-09-30T06:19:00;9.47;;;2.90;;
19877;SDS011;10101;52.204;9.910;2023-09-30T06:21:28;11.97;;;3.20;;
19877;SDS011;10101;52.204;9.910;2023-09-30T06:23:55;13.33;;;3.53;;
19877;SDS011;10101;52.204;9.910;2023-09-30T06:26:21;9.93;;;2.90;;
19877;SDS011;10101;52.204;9.910;2023-09-30T06:28:50;15.70;;;3.23;;
19877;SDS011;10101;52.204;9.910;2023-09-30T06:31:19;9.63;;;2.80;;
19877;SDS011;10101;52.204;9.910;2023-09-30T06:33:47;15.57;;;3.40;;
19877;SDS011;10101;52.204;9.910;2023-09-30T06:36:14;11.00;;;2.80;;
19877;SDS011;10101;52.204;9.910;2023-09-30T06:38:41;12.37;;;3.03;;
19877;SDS011;10101;52.204;9.910;2023-09-30T06:41:08;14.57;;;3.03;;
19877;SDS011;10101;52.204;9.910;2023-09-30T06:43:35;12.67;;;2.80;;
19877;SDS011;10101;52.204;9.910;2023-09-30T06:46:05;14.77;;;3.33;;
19877;SDS011;10101;52.204;9.910;2023-09-30T06:48:34;9.53;;;2.87;;
19877;SDS011;10101;52.204;9.910;2023-09-30T06:51:02;10.40;;;3.10;;
19877;SDS011;10101;52.204;9.910;2023-09-30T06:53:29;7.30;;;3.07;;
19877;SDS011;10101;52.204;9.910;2023-09-30T06:55:56;10.80;;;3.17;;
19877;SDS011;10101;52.204;9.910;2023-09-30T06:58:22;13.63;;;3.20;;
19877;SDS011;10101;52.204;9.910;2023-09-30T07:00:50;8.13;;;2.53;;
19877;SDS011;10101;52.204;9.910;2023-09-30T07:03:18;9.80;;;2.77;;
19877;SDS011;10101;52.204;9.910;2023-09-30T07:05:45;10.67;;;3.27;;
19877;SDS011;10101;52.204;9.910;2023-09-30T07:08:16;13.90;;;3.43;;
19877;SDS011;10101;52.204;9.910;2023-09-30T07:10:43;11.73;;;3.03;;
19877;SDS011;10101;52.204;9.910;2023-09-30T07:13:11;12.43;;;2.57;;
19877;SDS011;10101;52.204;9.910;2023-09-30T07:15:38;10.63;;;2.80;;
19877;SDS011;10101;52.204;9.910;2023-09-30T07:18:04;8.10;;;2.73;;
19877;SDS011;10101;52.204;9.910;2023-09-30T07:20:31;12.10;;;2.87;;
19877;SDS011;10101;52.204;9.910;2023-09-30T07:22:58;10.80;;;2.90;;
19877;SDS011;10101;52.204;9.910;2023-09-30T07:25:26;12.33;;;2.93;;
19877;SDS011;10101;52.204;9.910;2023-09-30T07:27:57;12.10;;;3.27;;
19877;SDS011;10101;52.204;9.910;2023-09-30T07:30:23;14.87;;;2.90;;
19877;SDS011;10101;52.204;9.910;2023-09-30T07:32:51;14.63;;;2.80;;
19877;SDS011;10101;52.204;9.910;2023-09-30T07:35:18;8.63;;;2.60;;
19877;SDS011;10101;52.204;9.910;2023-09-30T07:37:45;9.53;;;2.90;;
19877;SDS011;10101;52.204;9.910;2023-09-30T07:40:12;10.83;;;2.80;;
19877;SDS011;10101;52.204;9.910;2023-09-30T07:42:40;15.97;;;3.53;;
19877;SDS011;10101;52.204;9.910;2023-09-30T07:45:07;10.40;;;3.00;;
19877;SDS011;10101;52.204;9.910;2023-09-30T07:47:36;12.77;;;2.80;;
19877;SDS011;10101;52.204;9.910;2023-09-30T07:50:03;10.40;;;2.70;;
19877;SDS011;10101;52.204;9.910;2023-09-30T07:52:34;9.63;;;3.00;;
19877;SDS011;10101;52.204;9.910;2023-09-30T07:55:01;11.67;;;2.93;;
19877;SDS011;10101;52.204;9.910;2023-09-30T07:57:30;11.60;;;3.43;;
19877;SDS011;10101;52.204;9.910;2023-09-30T07:59:58;17.07;;;3.60;;
19877;SDS011;10101;52.204;9.910;2023-09-30T08:02:25;15.17;;;3.60;;
19877;SDS011;10101;52.204;9.910;2023-09-30T08:04:58;14.20;;;3.33;;
19877;SDS011;10101;52.204;9.910;2023-09-30T08:07:25;13.43;;;3.00;;
19877;SDS011;10101;52.204;9.910;2023-09-30T08:09:52;10.57;;;2.73;;
19877;SDS011;10101;52.204;9.910;2023-09-30T08:12:18;15.50;;;3.13;;
19877;SDS011;10101;52.204;9.910;2023-09-30T08:14:46;17.20;;;3.13;;
19877;SDS011;10101;52.204;9.910;2023-09-30T08:17:15;10.53;;;3.57;;
19877;SDS011;10101;52.204;9.910;2023-09-30T08:19:42;13.27;;;3.13;;
19877;SDS011;10101;52.204;9.910;2023-09-30T08:22:09;14.10;;;3.20;;
19877;SDS011;10101;52.204;9.910;2023-09-30T08:24:36;11.90;;;3.40;;
19877;SDS011;10101;52.204;9.910;2023-09-30T08:27:03;10.60;;;3.00;;
19877;SDS011;10101;52.204;9.910;2023-09-30T08:29:30;12.20;;;3.70;;
19877;SDS011;10101;52.204;9.910;2023-09-30T08:32:01;9.03;;;2.70;;
19877;SDS011;10101;52.204;9.910;2023-09-30T08:34:29;13.27;;;3.30;;
19877;SDS011;10101;52.204;9.910;2023-09-30T08:36:56;13.07;;;3.43;;
19877;SDS011;10101;52.204;9.910;2023-09-30T08:39:23;13.50;;;3.80;;
19877;SDS011;10101;52.204;9.910;2023-09-30T08:41:50;7.77;;;3.03;;
19877;SDS011;10101;52.204;9.910;2023-09-30T08:44:18;13.03;;;2.80;;
19877;SDS011;10101;52.204;9.910;2023-09-30T08:46:45;9.37;;;3.33;;
19877;SDS011;10101;52.204;9.910;2023-09-30T08:49:13;8.70;;;3.10;;
19877;SDS011;10101;52.204;9.910;2023-09-30T08:51:42;8.63;;;2.70;;
19877;SDS011;10101;52.204;9.910;2023-09-30T08:54:09;11.30;;;3.00;;
19877;SDS011;10101;52.204;9.910;2023-09-30T08:56:36;8.13;;;2.93;;
19877;SDS011;10101;52.204;9.910;2023-09-30T08:59:07;11.97;;;3.00;;
19877;SDS011;10101;52.204;9.910;2023-09-30T09:01:36;12.10;;;3.33;;
19877;SDS011;10101;52.204;9.910;2023-09-30T09:04:03;13.50;;;3.43;;
19877;SDS011;10101;52.204;9.910;2023-09-30T09:06:30;8.40;;;2.90;;
19877;SDS011;10101;52.204;9.910;2023-09-30T09:11:51;12.73;;;2.93;;
19877;SDS011;10101;52.204;9.910;2023-09-30T09:14:18;9.70;;;3.13;;
19877;SDS011;10101;52.204;9.910;2023-09-30T09:16:51;14.13;;;3.60;;
19877;SDS011;10101;52.204;9.910;2023-09-30T09:19:19;13.73;;;2.90;;
19877;SDS011;10101;52.204;9.910;2023-09-30T09:21:55;8.87;;;2.43;;
19877;SDS011;10101;52.204;9.910;2023-09-30T09:24:33;6.93;;;2.50;;
19877;SDS011;10101;52.204;9.910;2023-09-30T09:27:05;11.60;;;2.10;;
19877;SDS011;10101;52.204;9.910;2023-09-30T09:29:33;8.30;;;2.30;;
19877;SDS011;10101;52.204;9.910;2023-09-30T09:32:07;10.77;;;2.50;;
19877;SDS011;10101;52.204;9.910;2023-09-30T09:34:37;9.93;;;2.70;;
19877;SDS011;10101;52.204;9.910;2023-09-30T09:37:14;7.90;;;2.20;;
19877;SDS011;10101;52.204;9.910;2023-09-30T09:39:52;6.80;;;2.40;;
19877;SDS011;10101;52.204;9.910;2023-09-30T09:42:28;7.60;;;1.90;;
19877;SDS011;10101;52.204;9.910;2023-09-30T09:44:57;8.97;;;2.10;;
19877;SDS011;10101;52.204;9.910;2023-09-30T09:47:25;17.20;;;2.40;;
19877;SDS011;10101;52.204;9.910;2023-09-30T09:49:53;7.77;;;2.20;;
19877;SDS011;10101;52.204;9.910;2023-09-30T09:52:22;10.67;;;2.27;;
19877;SDS011;10101;52.204;9.910;2023-09-30T09:54:50;10.07;;;2.40;;
19877;SDS011;10101;52.204;9.910;2023-09-30T09:57:18;8.53;;;1.93;;
19877;SDS011;10101;52.204;9.910;2023-09-30T09:59:46;7.47;;;2.83;;
19877;SDS011;10101;52.204;9.910;2023-09-30T10:02:14;10.57;;;2.73;;
19877;SDS011;10101;52.204;9.910;2023-09-30T10:04:43;9.53;;;2.03;;
19877;SDS011;10101;52.204;9.910;2023-09-30T10:07:11;7.27;;;1.67;;
19877;SDS011;10101;52.204;9.910;2023-09-30T10:09:44;4.93;;;2.00;;
19877;SDS011;10101;52.204;9.910;2023-09-30T10:12:14;6.70;;;1.60;;
19877;SDS011;10101;52.204;9.910;2023-09-30T10:14:41;5.57;;;2.20;;
19877;SDS011;10101;52.204;9.910;2023-09-30T10:17:10;8.10;;;2.00;;
19877;SDS011;10101;52.204;9.910;2023-09-30T10:19:42;7.10;;;1.70;;
19877;SDS011;10101;52.204;9.910;2023-09-30T10:22:32;6.40;;;1.80;;
19877;SDS011;10101;52.204;9.910;2023-09-30T10:24:59;4.27;;;1.60;;
19877;SDS011;10101;52.204;9.910;2023-09-30T10:27:31;8.33;;;1.90;;
19877;SDS011;10101;52.204;9.910;2023-09-30T10:30:07;6.20;;;2.17;;
19877;SDS011;10101;52.204;9.910;2023-09-30T10:35:44;7.03;;;2.40;;
19877;SDS011;10101;52.204;9.910;2023-09-30T10:41:06;5.47;;;1.40;;
19877;SDS011;10101;52.204;9.910;2023-09-30T10:43:35;5.43;;;1.50;;
19877;SDS011;10101;52.204;9.910;2023-09-30T10:46:03;7.27;;;1.70;;
19877;SDS011;10101;52.204;9.910;2023-09-30T10:48:36;5.90;;;1.80;;
19877;SDS011;10101;52.204;9.910;2023-09-30T10:51:11;8.07;;;1.50;;
19877;SDS011;10101;52.204;9.910;2023-09-30T10:53:43;8.60;;;2.13;;
19877;SDS011;10101;52.204;9.910;2023-09-30T10:56:12;9.77;;;1.90;;
19877;SDS011;10101;52.204;9.910;2023-09-30T10:58:40;4.73;;;1.80;;
19877;SDS011;10101;52.204;9.910;2023-09-30T11:01:07;7.20;;;1.77;;
19877;SDS011;10101;52.204;9.910;2023-09-30T11:03:34;6.47;;;1.80;;
19877;SDS011;10101;52.204;9.910;2023-09-30T11:06:03;5.93;;;1.70;;
19877;SDS011;10101;52.204;9.910;2023-09-30T11:08:30;5.60;;;1.40;;
19877;SDS011;10101;52.204;9.910;2023-09-30T11:10:58;4.63;;;1.70;;
19877;SDS011;10101;52.204;9.910;2023-09-30T11:13:31;5.10;;;1.67;;
19877;SDS011;10101;52.204;9.910;2023-09-30T11:16:00;7.47;;;1.60;;
19877;SDS011;10101;52.204;9.910;2023-09-30T11:18:27;5.20;;;1.60;;
19877;SDS011;10101;52.204;9.910;2023-09-30T11:21:04;3.60;;;1.13;;
19877;SDS011;10101;52.204;9.910;2023-09-30T11:23:32;4.83;;;1.37;;
19877;SDS011;10101;52.204;9.910;2023-09-30T11:25:59;5.27;;;1.73;;
19877;SDS011;10101;52.204;9.910;2023-09-30T11:28:34;6.00;;;1.30;;
19877;SDS011;10101;52.204;9.910;2023-09-30T11:31:02;5.17;;;1.40;;
19877;SDS011;10101;52.204;9.910;2023-09-30T11:33:31;3.77;;;1.23;;
19877;SDS011;10101;52.204;9.910;2023-09-30T11:36:00;4.00;;;1.47;;
19877;SDS011;10101;52.204;9.910;2023-09-30T11:38:30;5.83;;;1.53;;
19877;SDS011;10101;52.204;9.910;2023-09-30T11:40:58;5.90;;;1.50;;
19877;SDS011;10101;52.204;9.910;2023-09-30T11:43:27;4.13;;;1.10;;
19877;SDS011;10101;52.204;9.910;2023-09-30T11:46:03;5.60;;;1.10;;
19877;SDS011;10101;52.204;9.910;2023-09-30T11:48:31;4.77;;;1.27;;
19877;SDS011;10101;52.204;9.910;2023-09-30T11:50:58;3.10;;;1.70;;
19877;SDS011;10101;52.204;9.910;2023-09-30T11:53:29;8.50;;;1.70;;
19877;SDS011;10101;52.204;9.910;2023-09-30T11:55:57;4.67;;;1.30;;
19877;SDS011;10101;52.204;9.910;2023-09-30T11:58:25;4.27;;;1.33;;
19877;SDS011;10101;52.204;9.910;2023-09-30T12:00:53;5.67;;;1.37;;
19877;SDS011;10101;52.204;9.910;2023-09-30T12:03:22;3.10;;;1.33;;
19877;SDS011;10101;52.204;9.910;2023-09-30T12:05:49;3.53;;;1.10;;
19877;SDS011;10101;52.204;9.910;2023-09-30T12:08:16;6.40;;;1.60;;
19877;SDS011;10101;52.204;9.910;2023-09-30T12:10:45;3.03;;;1.50;;
19877;SDS011;10101;52.204;9.910;2023-09-30T12:13:12;4.73;;;1.40;;
19877;SDS011;10101;52.204;9.910;2023-09-30T12:15:40;4.70;;;1.40;;
19877;SDS011;10101;52.204;9.910;2023-09-30T12:18:07;4.30;;;1.50;;
19877;SDS011;10101;52.204;9.910;2023-09-30T12:20:35;6.77;;;1.70;;
19877;SDS011;10101;52.204;9.910;2023-09-30T12:23:02;4.13;;;1.30;;
19877;SDS011;10101;52.204;9.910;2023-09-30T12:25:30;3.67;;;1.40;;
19877;SDS011;10101;52.204;9.910;2023-09-30T12:27:59;5.67;;;1.60;;
19877;SDS011;10101;52.204;9.910;2023-09-30T12:30:26;6.13;;;1.83;;
19877;SDS011;10101;52.204;9.910;2023-09-30T12:32:53;5.50;;;1.40;;
19877;SDS011;10101;52.204;9.910;2023-09-30T12:35:20;4.33;;;1.40;;
19877;SDS011;10101;52.204;9.910;2023-09-30T12:37:47;4.43;;;1.60;;
19877;SDS011;10101;52.204;9.910;2023-09-30T12:40:14;3.50;;;1.27;;
19877;SDS011;10101;52.204;9.910;2023-09-30T12:42:41;3.70;;;1.20;;
19877;SDS011;10101;52.204;9.910;2023-09-30T12:45:11;5.57;;;1.20;;
19877;SDS011;10101;52.204;9.910;2023-09-30T12:47:38;5.27;;;1.53;;
19877;SDS011;10101;52.204;9.910;2023-09-30T12:50:06;4.43;;;1.67;;
19877;SDS011;10101;52.204;9.910;2023-09-30T12:52:34;2.70;;;1.20;;
19877;SDS011;10101;52.204;9.910;2023-09-30T12:55:01;4.23;;;1.50;;
19877;SDS011;10101;52.204;9.910;2023-09-30T12:57:33;4.17;;;1.33;;
19877;SDS011;10101;52.204;9.910;2023-09-30T13:00:00;5.27;;;1.30;;
19877;SDS011;10101;52.204;9.910;2023-09-30T13:02:29;3.50;;;1.43;;
19877;SDS011;10101;52.204;9.910;2023-09-30T13:04:56;5.33;;;1.43;;
19877;SDS011;10101;52.204;9.910;2023-09-30T13:07:23;4.33;;;1.50;;
19877;SDS011;10101;52.204;9.910;2023-09-30T13:09:50;5.90;;;1.40;;
19877;SDS011;10101;52.204;9.910;2023-09-30T13:12:17;3.67;;;1.30;;
19877;SDS011;10101;52.204;9.910;2023-09-30T13:14:44;5.07;;;1.50;;
19877;SDS011;10101;52.204;9.910;2023-09-30T13:17:11;6.17;;;1.53;;
19877;SDS011;10101;52.204;9.910;2023-09-30T13:19:40;5.00;;;1.60;;
19877;SDS011;10101;52.204;9.910;2023-09-30T13:22:07;5.27;;;1.47;;
19877;SDS011;10101;52.204;9.910;2023-09-30T13:24:34;4.20;;;1.50;;
19877;SDS011;10101;52.204;9.910;2023-09-30T13:27:04;4.13;;;1.43;;
19877;SDS011;10101;52.204;9.910;2023-09-30T13:29:31;5.07;;;1.40;;
19877;SDS011;10101;52.204;9.910;2023-09-30T13:31:58;4.27;;;1.40;;
19877;SDS011;10101;52.204;9.910;2023-09-30T13:34:25;2.27;;;1.20;;
19877;SDS011;10101;52.204;9.910;2023-09-30T13:36:53;5.00;;;1.77;;
19877;SDS011;10101;52.204;9.910;2023-09-30T13:39:21;6.00;;;1.70;;
19877;SDS011;10101;52.204;9.910;2023-09-30T13:41:49;6.73;;;1.90;;
19877;SDS011;10101;52.204;9.910;2023-09-30T13:44:16;4.10;;;1.57;;
19877;SDS011;10101;52.204;9.910;2023-09-30T13:46:43;5.13;;;1.50;;
19877;SDS011;10101;52.204;9.910;2023-09-30T13:49:10;4.73;;;1.77;;
19877;SDS011;10101;52.204;9.910;2023-09-30T13:51:37;1.83;;;1.30;;
19877;SDS011;10101;52.204;9.910;2023-09-30T13:54:06;6.57;;;1.60;;
19877;SDS011;10101;52.204;9.910;2023-09-30T13:56:33;5.53;;;1.53;;
19877;SDS011;10101;52.204;9.910;2023-09-30T13:59:00;4.47;;;1.37;;
19877;SDS011;10101;52.204;9.910;2023-09-30T14:01:27;3.67;;;1.50;;
19877;SDS011;10101;52.204;9.910;2023-09-30T14:03:53;4.93;;;1.50;;
19877;SDS011;10101;52.204;9.910;2023-09-30T14:06:20;4.03;;;1.47;;
19877;SDS011;10101;52.204;9.910;2023-09-30T14:08:47;5.97;;;1.47;;
19877;SDS011;10101;52.204;9.910;2023-09-30T14:11:15;3.87;;;1.50;;
19877;SDS011;10101;52.204;9.910;2023-09-30T14:13:42;4.60;;;1.57;;
19877;SDS011;10101;52.204;9.910;2023-09-30T14:16:09;8.57;;;2.33;;
19877;SDS011;10101;52.204;9.910;2023-09-30T14:18:36;7.20;;;1.73;;
19877;SDS011;10101;52.204;9.910;2023-09-30T14:21:04;4.07;;;1.43;;
19877;SDS011;10101;52.204;9.910;2023-09-30T14:23:31;4.33;;;1.67;;
19877;SDS011;10101;52.204;9.910;2023-09-30T14:25:58;6.40;;;1.93;;
19877;SDS011;10101;52.204;9.910;2023-09-30T14:28:30;6.63;;;2.10;;
19877;SDS011;10101;52.204;9.910;2023-09-30T14:30:58;4.70;;;1.50;;
19877;SDS011;10101;52.204;9.910;2023-09-30T14:33:28;4.60;;;1.83;;
19877;SDS011;10101;52.204;9.910;2023-09-30T14:35:55;4.53;;;1.67;;
19877;SDS011;10101;52.204;9.910;2023-09-30T14:38:22;4.80;;;1.60;;
19877;SDS011;10101;52.204;9.910;2023-09-30T14:40:50;3.87;;;1.50;;
19877;SDS011;10101;52.204;9.910;2023-09-30T14:43:17;5.90;;;1.60;;
19877;SDS011;10101;52.204;9.910;2023-09-30T14:45:45;4.93;;;1.87;;
19877;SDS011;10101;52.204;9.910;2023-09-30T14:48:12;5.20;;;1.80;;
19877;SDS011;10101;52.204;9.910;2023-09-30T14:50:47;6.13;;;2.00;;
19877;SDS011;10101;52.204;9.910;2023-09-30T14:53:14;5.43;;;1.58;;